Portada
METAR-TAF:

METAR-TAF

Aeroports :

Pian Rosa, Itàlia

latitud: 45-56N, longitud: 007-42E, altitud: 3480 m

Observació

L'informe es va fer fa 46 minuts, a les 03:55 UTC
Vent 6 kt del Sud/Sud-Oest
Temperatura -8°C
Humitat 73%
Pressió 1022 hPa
Visibilitat 10 km o més
sense núvols per sota de 1500 mi sense presència de cumulonimbus.

METAR: LIMH 260355Z 21006KT CAVOK M08/M12 Q1022 RMK SKC MON LIB VAL NIL VIS MIN 9999

Hora: 05:41 (04:41 UTC)


TAF: manca

Observacions i pronòstics meteorològics de més de 4000 aeroports (METAR i TAF).

Les estacions disponibles són els punts grocs i vermells al mapa.

Posi el ratolí al punt desitjat per veure el nom de l'estació.

Feu clic per veure les observacions i els pronòstics meteorològics.

Per canviar el mapa: feu clic els botons verds amb una creu de color negre per apropar; al botó verd amb un guió per allunyar la imatge; o en les fletxes verdes per a mapes adjacents.


METAR-TAF: